Time;durP1;ratioP1;P1;durP2;ratioP2;P2;SDS_P1;SDS_P2;PMS_P1;PMS_P2;Temp;Humidity;BMP_temperature;BMP_pressure;BME280_temperature;BME280_humidity;BME280_pressure;Samples;Min_cycle;Max_cycle;Signal;HPM_P1;HPM_P2
2024/04/13 00:01:44;;;;;;;25.85;21.88;;;;;;;;;;5489732;26;20070;-65
2024/04/13 00:04:10;;;;;;;23.95;19.73;;;;;;;;;;5488783;26;20002;-65
2024/04/13 00:06:37;;;;;;;24.85;19.77;;;;;;;;;;5490043;26;20030;-65
2024/04/13 00:09:04;;;;;;;30.90;22.17;;;;;;;;;;5490086;26;20010;-65
2024/04/13 00:11:30;;;;;;;24.10;20.40;;;;;;;;;;5489987;26;20002;-65
2024/04/13 00:13:56;;;;;;;25.65;19.77;;;;;;;;;;5488230;26;20005;-65
2024/04/13 00:16:22;;;;;;;23.85;19.25;;;;;;;;;;5490219;26;20380;-65
2024/04/13 00:18:48;;;;;;;24.55;19.75;;;;;;;;;;5486874;26;20002;-65
2024/04/13 00:21:15;;;;;;;23.42;20.10;;;;;;;;;;5452952;26;20067;-65
2024/04/13 00:23:42;;;;;;;20.85;18.85;;;;;;;;;;5486757;26;20428;-65
2024/04/13 00:26:08;;;;;;;23.10;19.02;;;;;;;;;;5487639;26;19998;-65
2024/04/13 00:28:35;;;;;;;25.27;19.27;;;;;;;;;;5489754;26;20008;-65
2024/04/13 00:31:02;;;;;;;22.10;19.65;;;;;;;;;;5481164;26;20009;-65
2024/04/13 00:33:28;;;;;;;25.02;19.00;;;;;;;;;;5469427;26;20001;-65
2024/04/13 00:35:58;;;;;;;22.33;19.70;;;;;;;;;;5476788;26;20498;-64
2024/04/13 00:38:26;;;;;;;23.27;19.20;;;;;;;;;;5467651;26;19998;-64
2024/04/13 00:40:53;;;;;;;23.08;19.25;;;;;;;;;;5489270;26;19998;-64
2024/04/13 00:43:19;;;;;;;22.67;19.17;;;;;;;;;;5489296;26;20008;-64
2024/04/13 00:45:45;;;;;;;23.35;20.33;;;;;;;;;;5465342;26;20026;-64
2024/04/13 00:48:24;;;;;;;29.20;20.83;;;;;;;;;;5457835;26;19998;-64
2024/04/13 00:50:58;;;;;;;23.85;19.40;;;;;;;;;;5467199;26;19995;-66
2024/04/13 00:53:24;;;;;;;;;;;;;;;;;;5483717;26;20328;-66
2024/04/13 00:55:53;;;;;;;21.55;18.42;;;;;;;;;;5489805;26;19956;-64
2024/04/13 00:58:26;;;;;;;25.63;18.73;;;21.30;99.90;;;;;;5475977;26;19998;-64
2024/04/13 01:00:52;;;;;;;24.65;19.50;;;20.00;99.90;;;;;;5458435;26;20002;-63
2024/04/13 01:03:19;;;;;;;25.30;18.35;;;19.80;99.90;;;;;;5451064;26;20010;-64
2024/04/13 01:05:48;;;;;;;25.50;17.63;;;19.80;99.90;;;;;;5479204;26;20009;-64
2024/04/13 01:08:16;;;;;;;23.85;17.52;;;19.80;99.90;;;;;;5487291;26;20010;-65
2024/04/13 01:10:42;;;;;;;21.45;17.42;;;19.70;99.90;;;;;;5464886;26;20003;-65
2024/04/13 01:13:10;;;;;;;21.73;17.75;;;19.80;99.90;;;;;;5462382;26;20013;-65
2024/04/13 01:15:36;;;;;;;23.02;17.45;;;19.70;99.90;;;;;;5467407;26;20019;-65
2024/04/13 01:18:03;;;;;;;21.42;16.88;;;19.70;99.90;;;;;;5485111;26;20472;-65
2024/04/13 01:20:28;;;;;;;23.88;17.42;;;19.60;99.90;;;;;;5487049;26;20002;-65
2024/04/13 01:22:56;;;;;;;20.50;16.33;;;19.60;99.90;;;;;;5486812;26;20002;-65
2024/04/13 01:25:22;;;;;;;22.38;16.83;;;19.60;99.90;;;;;;5473612;26;20036;-65
2024/04/13 01:27:48;;;;;;;26.00;18.02;;;19.70;99.90;;;;;;5450873;26;20467;-65
2024/04/13 01:30:16;;;;;;;21.02;16.23;;;19.60;99.90;;;;;;5461214;26;20014;-65
2024/04/13 01:32:42;;;;;;;20.65;16.80;;;19.60;99.90;;;;;;5488086;26;20002;-64
2024/04/13 01:35:13;;;;;;;25.38;16.45;;;19.60;99.90;;;;;;5488077;26;20078;-65
2024/04/13 01:37:39;;;;;;;20.92;16.05;;;19.60;99.90;;;;;;5486588;26;20044;-65
2024/04/13 01:40:06;;;;;;;22.20;15.82;;;19.50;99.90;;;;;;5488410;26;20013;-65
2024/04/13 01:42:32;;;;;;;21.65;17.15;;;19.50;99.90;;;;;;5488438;26;20008;-65
2024/04/13 01:44:58;;;;;;;21.35;15.90;;;19.50;99.90;;;;;;5488600;26;20392;-65
2024/04/13 01:47:24;;;;;;;26.23;16.23;;;19.50;99.90;;;;;;5489107;26;20008;-65
2024/04/13 01:49:49;;;;;;;20.92;16.27;;;19.40;99.90;;;;;;5465504;26;19998;-65
2024/04/13 01:52:15;;;;;;;23.52;16.55;;;19.40;99.90;;;;;;5487023;26;20010;-65
2024/04/13 01:54:41;;;;;;;18.83;15.30;;;19.30;99.90;;;;;;5488228;26;20014;-65
2024/04/13 01:57:06;;;;;;;21.00;15.82;;;19.30;99.90;;;;;;5486496;26;20074;-65
2024/04/13 01:59:32;;;;;;;21.23;15.85;;;19.30;99.90;;;;;;5473914;26;19999;-65
2024/04/13 02:01:58;;;;;;;18.67;16.30;;;19.30;99.90;;;;;;5451923;26;20437;-64
2024/04/13 02:04:24;;;;;;;22.08;16.15;;;19.40;99.90;;;;;;5488395;26;20013;-65
2024/04/13 02:06:49;;;;;;;23.60;16.33;;;19.30;99.90;;;;;;5488587;26;19998;-65
2024/04/13 02:09:18;;;;;;;22.20;16.45;;;19.30;99.90;;;;;;5488090;26;20468;-65
2024/04/13 02:15:06;;;;;;;20.00;15.35;;;19.30;99.90;;;;;;5460666;26;20035;-65
2024/04/13 02:17:32;;;;;;;20.02;16.25;;;19.20;99.90;;;;;;5480966;26;20002;-65
2024/04/13 02:19:57;;;;;;;17.08;14.98;;;19.20;99.90;;;;;;5488338;26;19998;-65
2024/04/13 02:22:23;;;;;;;20.00;16.85;;;19.20;99.90;;;;;;5488017;26;20005;-66
2024/04/13 02:24:49;;;;;;;22.00;16.08;;;19.20;99.90;;;;;;5487933;26;19999;-65
2024/04/13 02:27:14;;;;;;;26.60;16.67;;;19.10;99.90;;;;;;5486605;26;20037;-64
2024/04/13 02:29:43;;;;;;;25.35;16.80;;;19.10;99.90;;;;;;5487793;26;20016;-64
2024/04/13 02:32:09;;;;;;;21.02;16.17;;;19.20;99.90;;;;;;5486099;26;20036;-65
2024/04/13 02:34:34;;;;;;;20.38;16.05;;;19.10;99.90;;;;;;5487446;26;19999;-64
2024/04/13 02:37:00;;;;;;;20.35;15.40;;;19.10;99.90;;;;;;5471652;26;20002;-64
2024/04/13 02:39:26;;;;;;;21.85;15.85;;;19.10;99.90;;;;;;5487189;26;20463;-64
2024/04/13 02:41:52;;;;;;;20.55;15.80;;;19.10;99.90;;;;;;5487527;26;19999;-64
2024/04/13 02:44:18;;;;;;;23.80;16.02;;;19.10;99.90;;;;;;5487621;26;20009;-64
2024/04/13 02:46:44;;;;;;;19.52;16.23;;;19.20;99.90;;;;;;5487191;26;20013;-64
2024/04/13 02:49:09;;;;;;;20.85;15.90;;;19.10;99.90;;;;;;5485873;26;19998;-64
2024/04/13 02:51:35;;;;;;;23.60;15.05;;;19.00;99.90;;;;;;5487114;26;19998;-64
2024/04/13 02:54:02;;;;;;;20.77;15.45;;;19.10;99.90;;;;;;5487205;26;20401;-64
2024/04/13 02:56:28;;;;;;;19.65;15.38;;;19.00;99.90;;;;;;5487004;26;20317;-64
2024/04/13 02:58:53;;;;;;;19.63;16.13;;;19.00;99.90;;;;;;5482694;26;20047;-64
2024/04/13 03:01:19;;;;;;;21.17;15.30;;;19.00;99.90;;;;;;5450683;26;20010;-64
2024/04/13 03:03:45;;;;;;;19.23;16.10;;;19.00;99.90;;;;;;5453394;26;20024;-63
2024/04/13 03:06:13;;;;;;;19.50;15.82;;;19.00;99.90;;;;;;5481048;26;20006;-64
2024/04/13 03:08:39;;;;;;;23.80;15.57;;;19.00;99.90;;;;;;5474766;26;20444;-64
2024/04/13 03:11:08;;;;;;;20.90;16.67;;;19.00;99.90;;;;;;5485735;26;20023;-64
2024/04/13 03:13:34;;;;;;;18.25;15.30;;;18.90;99.90;;;;;;5479406;26;20366;-64
2024/04/13 03:16:08;;;;;;;18.10;15.60;;;18.90;99.90;;;;;;5485917;26;20006;-65
2024/04/13 03:18:34;;;;;;;;;;;18.90;99.90;;;;;;5487630;26;20017;-64
2024/04/13 03:21:00;;;;;;;22.13;15.40;;;18.90;99.90;;;;;;5487018;26;19931;-64
2024/04/13 03:23:28;;;;;;;18.20;15.73;;;18.80;99.90;;;;;;5483385;26;20010;-64
2024/04/13 03:25:54;;;;;;;21.50;15.93;;;18.80;99.90;;;;;;5465736;26;20013;-64
2024/04/13 03:28:25;;;;;;;18.75;14.65;;;18.90;99.90;;;;;;5486531;26;19994;-64
2024/04/13 03:30:50;;;;;;;16.88;14.50;;;18.80;99.90;;;;;;5486607;26;20009;-64
2024/04/13 03:33:16;;;;;;;20.55;14.90;;;18.80;99.90;;;;;;5486752;26;20106;-64
2024/04/13 03:35:42;;;;;;;20.65;14.90;;;18.80;99.90;;;;;;5486364;26;20062;-65
2024/04/13 03:38:08;;;;;;;17.35;14.88;;;18.80;99.90;;;;;;5488230;26;20009;-64
2024/04/13 03:40:36;;;;;;;17.90;14.20;;;18.80;99.90;;;;;;5490558;26;20066;-64
2024/04/13 03:43:05;;;;;;;17.23;13.82;;;18.80;99.90;;;;;;5490210;26;20338;-64
2024/04/13 03:45:30;;;;;;;17.67;13.13;;;18.70;99.90;;;;;;5490122;26;20113;-64
2024/04/13 03:47:56;;;;;;;17.85;14.00;;;18.80;99.90;;;;;;5490010;26;20013;-64
2024/04/13 03:50:22;;;;;;;17.80;13.10;;;18.80;99.90;;;;;;5490448;26;20013;-64
2024/04/13 03:52:48;;;;;;;18.15;12.98;;;18.80;99.90;;;;;;5490055;26;20066;-64
2024/04/13 03:55:14;;;;;;;16.00;13.23;;;18.70;99.90;;;;;;5488114;26;20016;-64
2024/04/13 03:57:39;;;;;;;14.57;13.05;;;18.70;99.90;;;;;;5489612;26;20017;-64
2024/04/13 04:00:06;;;;;;;13.82;12.32;;;18.70;99.90;;;;;;5489736;26;20016;-64
2024/04/13 04:02:33;;;;;;;15.77;12.15;;;18.60;99.90;;;;;;5489780;26;20451;-64
2024/04/13 04:04:58;;;;;;;14.75;13.13;;;18.70;99.90;;;;;;5490411;26;20002;-64
2024/04/13 04:07:24;;;;;;;14.05;12.30;;;18.70;99.90;;;;;;5489992;26;20021;-65
2024/04/13 04:09:50;;;;;;;14.45;11.48;;;;;;;;;;5488088;26;20017;-64
2024/04/13 04:12:16;;;;;;;13.02;11.00;;;;;;;;;;5489647;26;20017;-64
2024/04/13 04:14:51;;;;;;;12.60;11.02;;;;;;;;;;5490023;26;20006;-64
2024/04/13 04:17:17;;;;;;;11.90;10.57;;;;;;;;;;5476419;26;20003;-65
2024/04/13 04:19:43;;;;;;;13.60;12.18;;;;;;;;;;5478528;26;20327;-64
2024/04/13 04:22:10;;;;;;;15.30;10.93;;;;;;;;;;5489831;26;20002;-64
2024/04/13 04:30:45;;;;;;;14.60;10.52;;;;;;;;;;5461704;26;20013;-64
2024/04/13 04:33:12;;;;;;;13.73;10.82;;;;;;;;;;5470941;26;20009;-64
2024/04/13 04:35:38;;;;;;;14.35;11.95;;;;;;;;;;5489438;26;19998;-65
2024/04/13 04:38:04;;;;;;;13.48;11.40;;;;;;;;;;5489369;26;20013;-64
2024/04/13 04:40:30;;;;;;;13.50;11.98;;;;;;;;;;5486947;26;20010;-65
2024/04/13 04:46:00;;;;;;;12.57;11.20;;;;;;;;;;5462531;26;20443;-64
2024/04/13 04:48:26;;;;;;;15.13;11.55;;;;;;;;;;5489620;26;19998;-64
2024/04/13 04:50:58;;;;;;;13.35;11.90;;;;;;;;;;5488517;26;20002;-64
2024/04/13 04:53:28;;;;;;;16.77;12.13;;;;;;;;;;5489322;26;19998;-64
2024/04/13 04:55:55;;;;;;;14.40;11.65;;;;;;;;;;5489404;26;20017;-65
2024/04/13 04:58:21;;;;;;;14.38;12.15;;;;;;;;;;5487355;26;20119;-64
2024/04/13 05:00:48;;;;;;;17.27;12.27;;;;;;;;;;5474170;26;20339;-64
2024/04/13 05:03:14;;;;;;;18.95;10.95;;;;;;;;;;5489138;26;20436;-65
2024/04/13 05:05:41;;;;;;;14.57;11.13;;;;;;;;;;5489371;26;20002;-65
2024/04/13 05:08:07;;;;;;;14.77;11.23;;;;;;;;;;5473312;26;19998;-64
2024/04/13 05:10:33;;;;;;;14.00;11.50;;;;;;;;;;5489225;26;20039;-64
2024/04/13 05:12:59;;;;;;;14.48;12.95;;;;;;;;;;5488438;26;19998;-64
2024/04/13 05:15:25;;;;;;;17.20;13.07;;;;;;;;;;5488996;26;20004;-64
2024/04/13 05:17:51;;;;;;;16.27;13.05;;;;;;;;;;5488894;26;20005;-65
2024/04/13 05:20:17;;;;;;;18.65;13.63;;;;;;;;;;5488885;26;19994;-64
2024/04/13 05:22:43;;;;;;;17.40;14.65;;;;;;;;;;5488307;26;19998;-64
2024/04/13 05:25:09;;;;;;;19.20;15.85;;;;;;;;;;5488540;26;20086;-64
2024/04/13 05:27:35;;;;;;;19.17;14.40;;;;;;;;;;5489112;26;19994;-66
2024/04/13 05:30:04;;;;;;;19.73;15.40;;;;;;;;;;5488602;26;20034;-64
2024/04/13 05:32:30;;;;;;;17.00;14.15;;;;;;;;;;5488552;26;20363;-64
2024/04/13 05:34:56;;;;;;;20.08;15.35;;;;;;;;;;5488323;26;20013;-63
2024/04/13 05:37:22;;;;;;;23.80;16.95;;;;;;;;;;5488498;26;19998;-63
2024/04/13 05:39:48;;;;;;;19.50;15.70;;;;;;;;;;5488480;26;20010;-63
2024/04/13 05:42:14;;;;;;;21.20;16.92;;;;;;;;;;5488458;26;19998;-63
2024/04/13 05:44:40;;;;;;;20.08;16.55;;;;;;;;;;5488335;26;20464;-63
2024/04/13 05:47:06;;;;;;;20.10;16.40;;;;;;;;;;5488461;26;20002;-64
2024/04/13 05:49:32;;;;;;;18.75;16.70;;;;;;;;;;5488364;26;20443;-64
2024/04/13 05:51:58;;;;;;;20.50;16.77;;;;;;;;;;5485904;26;19994;-64
2024/04/13 05:54:24;;;;;;;21.35;15.15;;;;;;;;;;5488221;26;20009;-64
2024/04/13 05:56:53;;;;;;;21.10;16.20;;;;;;;;;;5488063;26;20071;-64
2024/04/13 05:59:19;;;;;;;21.00;16.00;;;;;;;;;;5488086;26;20005;-64
2024/04/13 06:01:45;;;;;;;18.30;16.27;;;;;;;;;;5493545;26;20005;-64
2024/04/13 06:04:11;;;;;;;19.48;16.73;;;;;;;;;;5451780;26;20063;-64
2024/04/13 06:06:37;;;;;;;23.77;17.08;;;;;;;;;;5486613;26;20067;-64
2024/04/13 06:09:05;;;;;;;28.23;17.40;;;;;;;;;;5488337;26;20006;-64
2024/04/13 06:11:31;;;;;;;22.50;16.95;;;;;;;;;;5487780;26;19997;-64
2024/04/13 06:13:57;;;;;;;22.95;16.98;;;;;;;;;;5487801;26;20005;-64
2024/04/13 06:16:23;;;;;;;18.95;16.85;;;;;;;;;;5488059;26;19998;-64
2024/04/13 06:18:49;;;;;;;19.00;16.35;;;;;;;;;;5487791;26;20009;-64
2024/04/13 06:21:16;;;;;;;23.58;17.73;;;;;;;;;;5487453;26;19998;-64
2024/04/13 06:23:42;;;;;;;22.65;18.80;;;;;;;;;;5487906;26;20005;-64
2024/04/13 06:26:13;;;;;;;23.35;17.35;;;;;;;;;;5488004;26;20006;-64
2024/04/13 06:28:39;;;;;;;21.20;18.35;;;;;;;;;;5482601;26;20014;-64
2024/04/13 06:31:06;;;;;;;24.13;17.77;;;;;;;;;;5482493;26;20469;-64
2024/04/13 06:33:33;;;;;;;22.98;18.08;;;;;;;;;;5486745;26;20032;-64
2024/04/13 06:35:59;;;;;;;21.77;16.48;;;;;;;;;;5487736;26;20006;-64
2024/04/13 06:38:26;;;;;;;27.50;17.80;;;;;;;;;;5486904;26;20009;-64
2024/04/13 06:40:52;;;;;;;24.80;16.48;;;;;;;;;;5475956;26;20385;-64
2024/04/13 06:43:18;;;;;;;22.48;17.20;;;;;;;;;;5477418;26;20070;-64
2024/04/13 06:45:44;;;;;;;21.25;16.63;;;;;;;;;;5486929;26;19994;-64
2024/04/13 06:48:10;;;;;;;20.42;16.58;;;;;;;;;;5485652;26;19998;-64
2024/04/13 06:50:36;;;;;;;21.48;17.13;;;;;;;;;;5486717;26;20069;-65
2024/04/13 06:53:02;;;;;;;24.10;17.33;;;;;;;;;;5486970;26;20014;-65
2024/04/13 06:55:28;;;;;;;26.25;17.85;;;;;;;;;;5487319;26;19998;-64
2024/04/13 06:57:54;;;;;;;24.52;17.40;;;;;;;;;;5487223;26;20009;-64
2024/04/13 07:00:20;;;;;;;27.63;18.45;;;;;;;;;;5487157;26;19995;-64
2024/04/13 07:02:47;;;;;;;21.70;18.33;;;;;;;;;;5486592;26;20332;-64
2024/04/13 07:05:13;;;;;;;23.13;19.00;;;;;;;;;;5487161;26;20379;-64
2024/04/13 07:07:40;;;;;;;27.20;19.77;;;;;;;;;;5486855;26;20002;-64
2024/04/13 07:10:06;;;;;;;25.13;18.90;;;;;;;;;;5484170;26;20467;-64
2024/04/13 07:12:32;;;;;;;23.00;19.25;;;;;;;;;;5487596;26;19998;-64
2024/04/13 07:14:58;;;;;;;29.50;21.23;;;;;;;;;;5490248;26;20080;-64
2024/04/13 07:17:24;;;;;;;30.23;21.65;;;;;;;;;;5490519;26;19995;-64
2024/04/13 07:19:51;;;;;;;29.85;23.00;;;;;;;;;;5483020;26;20038;-64
2024/04/13 07:22:17;;;;;;;26.52;22.83;;;;;;;;;;5470195;26;19993;-64
2024/04/13 07:24:43;;;;;;;29.95;23.38;;;;;;;;;;5477377;26;20380;-64
2024/04/13 07:27:09;;;;;;;31.27;24.05;;;;;;;;;;5480808;26;19990;-64
2024/04/13 07:29:35;;;;;;;29.10;22.98;;;;;;;;;;5476310;26;20510;-65
2024/04/13 07:32:01;;;;;;;26.92;23.60;;;;;;;;;;5490815;26;20025;-64
2024/04/13 07:34:27;;;;;;;29.48;23.20;;;;;;;;;;5488147;26;20030;-64
2024/04/13 07:36:53;;;;;;;28.23;22.48;;;;;;;;;;5490278;26;20112;-64
2024/04/13 07:39:19;;;;;;;28.55;23.55;;;;;;;;;;5483070;26;20002;-64
2024/04/13 07:41:45;;;;;;;27.80;22.50;;;;;;;;;;5464729;26;20413;-65
2024/04/13 07:44:11;;;;;;;31.15;23.15;;;;;;;;;;5479304;26;19995;-65
2024/04/13 07:46:37;;;;;;;29.60;24.33;;;;;;;;;;5475670;26;20017;-65
2024/04/13 07:49:03;;;;;;;27.02;22.00;;;;;;;;;;5477651;26;20440;-65
2024/04/13 07:51:29;;;;;;;29.33;23.55;;;;;;;;;;5490677;26;20000;-65
2024/04/13 07:53:55;;;;;;;30.48;23.85;;;;;;;;;;5473753;26;20010;-65
2024/04/13 07:56:21;;;;;;;31.30;23.27;;;;;;;;;;5454813;26;20319;-65
2024/04/13 07:58:47;;;;;;;25.95;22.75;;;;;;;;;;5489912;26;20005;-65
2024/04/13 08:01:13;;;;;;;28.63;23.08;;;;;;;;;;5489695;26;20002;-65
2024/04/13 08:03:39;;;;;;;25.67;22.13;;;;;;;;;;5489802;26;19994;-65
2024/04/13 08:06:05;;;;;;;30.90;21.55;;;;;;;;;;5459850;26;20493;-65
2024/04/13 08:08:31;;;;;;;25.23;20.48;;;;;;;;;;5475366;26;19998;-65
2024/04/13 08:10:57;;;;;;;27.55;21.08;;;;;;;;;;5490365;26;20073;-65
2024/04/13 08:13:23;;;;;;;26.70;20.45;;;;;;;;;;5489765;26;20002;-65
2024/04/13 08:15:49;;;;;;;26.23;18.83;;;;;;;;;;5490189;26;20171;-65
2024/04/13 08:18:15;;;;;;;21.33;19.02;;;;;;;;;;5486587;26;20424;-65
2024/04/13 08:20:43;;;;;;;25.00;18.95;;;;;;;;;;5490527;26;19998;-65
2024/04/13 08:23:09;;;;;;;21.30;17.10;;;;;;;;;;5489970;26;19994;-65
2024/04/13 08:25:35;;;;;;;21.08;16.55;;;;;;;;;;5488647;26;20009;-65
2024/04/13 08:28:01;;;;;;;23.55;16.75;;;;;;;;;;5488211;26;20448;-65
2024/04/13 08:30:27;;;;;;;17.88;15.98;;;;;;;;;;5489986;26;20012;-63
2024/04/13 08:32:53;;;;;;;25.52;16.95;;;;;;;;;;5488552;26;20009;-63
2024/04/13 08:35:19;;;;;;;24.23;14.68;;;;;;;;;;5488893;26;20010;-63
2024/04/13 08:37:46;;;;;;;16.35;13.73;;;;;;;;;;5489396;26;20599;-65
2024/04/13 08:40:12;;;;;;;20.48;14.18;;;;;;;;;;5486969;26;20325;-64
2024/04/13 08:42:40;;;;;;;13.55;11.70;;;;;;;;;;5472297;26;20071;-64
2024/04/13 08:45:16;;;;;;;15.13;12.73;;;;;;;;;;5481324;26;20018;-63
2024/04/13 08:47:42;;;;;;;18.48;11.48;;;;;;;;;;5489179;26;20010;-64
2024/04/13 08:50:09;;;;;;;18.85;11.75;;;;;;;;;;5481245;26;20390;-64
2024/04/13 08:52:35;;;;;;;22.20;14.85;;;;;;;;;;5484176;26;20001;-64
2024/04/13 08:55:03;;;;;;;24.83;14.93;;;;;;;;;;5489317;26;20037;-64
2024/04/13 08:57:30;;;;;;;18.20;13.80;;;;;;;;;;5474223;26;19998;-64
2024/04/13 09:00:00;;;;;;;14.98;10.95;;;;;;;;;;5488757;26;20020;-64
2024/04/13 09:02:30;;;;;;;13.20;10.25;;;;;;;;;;5488919;26;19999;-63
2024/04/13 09:04:56;;;;;;;11.85;10.20;;;;;;;;;;5489272;26;20369;-63
2024/04/13 09:07:22;;;;;;;15.98;12.07;;;;;;;;;;5488777;26;20014;-63
2024/04/13 09:09:49;;;;;;;14.63;11.65;;;;;;;;;;5463221;26;20002;-63
2024/04/13 09:12:15;;;;;;;15.63;11.18;;;;;;;;;;5488935;26;20012;-63
2024/04/13 09:14:42;;;;;;;14.07;10.18;;;;;;;;;;5489097;26;20325;-64
2024/04/13 09:17:08;;;;;;;12.18;9.95;;;;;;;;;;5489195;26;20010;-63
2024/04/13 09:19:34;;;;;;;12.05;9.85;;;;;;;;;;5488241;26;20002;-64
2024/04/13 09:22:00;;;;;;;14.68;10.40;;;;;;;;;;5485634;26;20013;-63
2024/04/13 09:24:39;;;;;;;14.50;9.98;;;;;;;;;;5488937;26;20377;-64
2024/04/13 09:27:06;;;;;;;16.05;10.65;;;;;;;;;;5482467;26;19998;-64
2024/04/13 09:29:32;;;;;;;14.23;10.23;;;;;;;;;;5476779;26;20432;-63
2024/04/13 09:31:58;;;;;;;14.32;9.50;;;;;;;;;;5478503;26;20045;-63
2024/04/13 09:34:24;;;;;;;24.23;11.38;;;;;;;;;;5488707;26;20401;-63
2024/04/13 09:36:50;;;;;;;130.98;25.83;;;18.70;99.90;;;;;;5485297;26;20002;-62
2024/04/13 09:39:19;;;;;;;14.80;9.43;;;21.30;99.90;;;;;;5474257;26;19998;-62
2024/04/13 09:41:45;;;;;;;12.13;8.90;;;21.30;99.90;;;;;;5486948;26;19998;-62
2024/04/13 09:44:11;;;;;;;12.77;10.23;;;21.30;99.90;;;;;;5487346;26;20002;-62
2024/04/13 09:46:36;;;;;;;12.00;10.25;;;21.30;99.90;;;;;;5486212;26;20014;-62
2024/04/13 09:49:02;;;;;;;17.13;10.98;;;21.30;99.90;;;;;;5488252;26;19999;-62
2024/04/13 09:51:28;;;;;;;16.13;11.18;;;21.40;99.90;;;;;;5486450;26;20002;-62
2024/04/13 09:53:54;;;;;;;14.45;10.02;;;;;;;;;;5486849;26;20009;-62
2024/04/13 09:56:21;;;;;;;14.25;11.77;;;;;;;;;;5486832;26;20460;-62
2024/04/13 09:58:49;;;;;;;15.82;11.10;;;;;;;;;;5486873;26;20002;-62
2024/04/13 10:01:15;;;;;;;13.45;11.32;;;;;;;;;;5487856;26;20074;-62
2024/04/13 10:03:41;;;;;;;15.85;11.55;;;;;;;;;;5485479;26;20002;-62
2024/04/13 10:06:11;;;;;;;16.15;12.13;;;;;;;;;;5488088;26;20079;-62
2024/04/13 10:08:39;;;;;;;17.02;10.27;;;;;;;;;;5487963;26;20005;-62
2024/04/13 10:11:06;;;;;;;14.77;10.40;;;;;;;;;;5467199;26;20070;-62
2024/04/13 10:13:34;;;;;;;11.32;8.50;;;;;;;;;;5474615;26;19998;-63
2024/04/13 10:16:01;;;;;;;12.20;9.63;;;;;;;;;;5487705;26;20009;-63
2024/04/13 10:18:27;;;;;;;10.38;9.10;;;;;;;;;;5487240;26;20467;-62
2024/04/13 10:20:56;;;;;;;8.98;7.93;;;;;;;;;;5484428;26;20077;-63
2024/04/13 10:23:22;;;;;;;12.15;8.50;;;;;;;;;;5487775;26;20067;-63
2024/04/13 10:25:58;;;;;;;15.48;11.45;;;;;;;;;;5479473;26;19998;-63
2024/04/13 10:28:24;;;;;;;14.25;9.77;;;;;;;;;;5481200;26;20039;-63
2024/04/13 10:30:56;;;;;;;13.10;9.63;;;;;;;;;;5486890;26;20002;-62
2024/04/13 10:33:26;;;;;;;11.43;10.02;;;;;;;;;;5485983;26;20002;-63
2024/04/13 10:40:05;;;;;;;10.77;8.50;;;21.40;99.90;;;;;;5466816;26;20336;-63
2024/04/13 10:42:41;;;;;;;12.75;10.50;;;22.50;99.90;;;;;;5454463;26;20071;-62
2024/04/13 10:45:19;;;;;;;11.98;8.73;;;22.50;99.90;;;;;;5472181;26;20014;-62
2024/04/13 10:47:46;;;;;;;10.88;9.38;;;22.60;99.90;;;;;;5487931;26;20002;-63
2024/04/13 10:50:14;;;;;;;12.93;9.95;;;22.70;99.90;;;;;;5490950;26;20010;-62
2024/04/13 10:52:40;;;;;;;11.90;9.02;;;22.80;99.90;;;;;;5476183;26;20113;-62
2024/04/13 10:55:06;;;;;;;10.55;8.45;;;22.80;99.90;;;;;;5490437;26;20016;-62
2024/04/13 10:57:32;;;;;;;9.48;8.57;;;22.90;99.90;;;;;;5489121;26;20308;-62
2024/04/13 10:59:58;;;;;;;9.48;7.80;;;;;;;;;;5490825;26;20001;-62
2024/04/13 11:02:24;;;;;;;11.10;7.95;;;;;;;;;;5490182;26;20052;-62
2024/04/13 11:04:50;;;;;;;9.43;8.05;;;;;;;;;;5476751;26;20010;-62
2024/04/13 11:07:18;;;;;;;9.52;8.15;;;;;;;;;;5490034;26;20020;-61
2024/04/13 11:09:45;;;;;;;11.35;8.25;;;;;;;;;;5490719;26;20002;-62
2024/04/13 11:12:12;;;;;;;10.70;9.43;;;;;;;;;;5490243;26;19998;-62
2024/04/13 11:14:38;;;;;;;10.75;8.40;;;;;;;;;;5477780;26;20011;-62
2024/04/13 11:17:04;;;;;;;11.27;8.82;;;;;;;;;;5476362;26;20003;-62
2024/04/13 11:19:31;;;;;;;11.00;8.73;;;;;;;;;;5490375;26;20597;-62
2024/04/13 11:21:57;;;;;;;10.02;8.82;;;;;;;;;;5490420;26;20387;-62
2024/04/13 11:24:24;;;;;;;11.25;9.38;;;;;;;;;;5490430;26;19998;-62
2024/04/13 11:26:51;;;;;;;9.73;8.38;;;;;;;;;;5489899;26;20006;-62
2024/04/13 11:29:20;;;;;;;12.15;9.38;;;;;;;;;;5483662;26;20067;-63
2024/04/13 11:31:46;;;;;;;10.75;8.75;;;;;;;;;;5488936;26;20013;-63
2024/04/13 11:34:12;;;;;;;9.32;8.15;;;;;;;;;;5490557;26;20081;-63
2024/04/13 11:36:38;;;;;;;10.82;8.27;;;;;;;;;;5483351;26;20002;-63
2024/04/13 11:39:04;;;;;;;8.85;7.93;;;23.00;99.90;;;;;;5483291;26;20528;-63
2024/04/13 11:41:30;;;;;;;9.15;8.02;;;24.20;99.90;;;;;;5483918;26;20006;-60
2024/04/13 11:43:56;;;;;;;8.13;7.15;;;24.20;99.90;;;;;;5488100;26;20046;-61
2024/04/13 11:46:25;;;;;;;13.10;9.10;;;24.20;99.90;;;;;;5484555;26;20002;-62
2024/04/13 11:48:51;;;;;;;13.02;8.60;;;24.50;99.90;;;;;;5489929;26;20435;-61
2024/04/13 11:51:18;;;;;;;9.85;7.60;;;24.50;99.90;;;;;;5487269;26;20002;-61
2024/04/13 11:53:44;;;;;;;9.95;8.27;;;24.50;99.90;;;;;;5485470;26;20010;-61
2024/04/13 12:02:36;;;;;;;9.07;7.47;;;;;;;;;;5449569;26;20016;-61
2024/04/13 12:05:02;;;;;;;11.43;8.95;;;;;;;;;;5479953;26;19998;-62
2024/04/13 12:07:28;;;;;;;10.35;8.50;;;;;;;;;;5487290;26;20453;-61
2024/04/13 12:09:54;;;;;;;10.45;8.13;;;;;;;;;;5466917;26;20002;-61
2024/04/13 12:12:19;;;;;;;10.90;8.32;;;;;;;;;;5489251;26;20428;-62
2024/04/13 12:14:47;;;;;;;8.25;7.30;;;;;;;;;;5468474;26;20014;-61
2024/04/13 12:17:14;;;;;;;12.75;7.97;;;;;;;;;;5489485;26;20002;-61
2024/04/13 12:22:44;;;;;;;8.13;7.30;;;;;;;;;;5469922;26;20401;-63
2024/04/13 12:25:10;;;;;;;9.10;7.38;;;;;;;;;;5465533;26;20038;-64
2024/04/13 12:27:36;;;;;;;9.55;8.55;;;;;;;;;;5482762;26;20112;-64
2024/04/13 12:30:03;;;;;;;11.52;8.20;;;;;;;;;;5487894;26;20013;-65
2024/04/13 12:32:30;;;;;;;11.57;7.93;;;;;;;;;;5489958;26;20074;-65
2024/04/13 12:34:57;;;;;;;10.40;7.97;;;;;;;;;;5489546;26;20092;-65
2024/04/13 12:37:23;;;;;;;8.90;7.57;;;;;;;;;;5487900;26;20002;-65
2024/04/13 12:39:49;;;;;;;8.95;6.93;;;;;;;;;;5488090;26;20511;-65
2024/04/13 12:42:15;;;;;;;10.27;7.20;;;;;;;;;;5482010;26;20078;-65
2024/04/13 12:44:41;;;;;;;8.90;7.82;;;;;;;;;;5468413;26;20128;-65
2024/04/13 12:47:08;;;;;;;8.38;6.90;;;;;;;;;;5472141;26;19998;-65
2024/04/13 12:49:34;;;;;;;11.45;6.80;;;;;;;;;;5489797;26;19998;-65
2024/04/13 12:52:00;;;;;;;9.90;7.03;;;;;;;;;;5487135;26;19994;-64
2024/04/13 12:54:26;;;;;;;9.90;6.93;;;;;;;;;;5487777;26;20005;-64
2024/04/13 12:56:52;;;;;;;9.45;6.75;;;;;;;;;;5482932;26;20009;-64
2024/04/13 12:59:18;;;;;;;9.73;7.00;;;;;;;;;;5455100;26;19994;-65
2024/04/13 13:01:44;;;;;;;7.60;6.70;;;;;;;;;;5489246;26;20013;-65
2024/04/13 13:04:10;;;;;;;6.85;6.15;;;;;;;;;;5489204;26;19994;-64
2024/04/13 13:06:37;;;;;;;9.02;6.03;;;;;;;;;;5489215;26;19998;-64
2024/04/13 13:09:03;;;;;;;7.25;6.20;;;;;;;;;;5489646;26;20030;-64
2024/04/13 13:11:29;;;;;;;9.65;7.03;;;;;;;;;;5488448;26;19998;-64
2024/04/13 13:13:55;;;;;;;9.15;5.72;;;;;;;;;;5489194;26;20452;-64
2024/04/13 13:16:21;;;;;;;8.30;6.53;;;;;;;;;;5487598;26;19994;-64
2024/04/13 13:18:48;;;;;;;7.95;5.93;;;;;;;;;;5487458;26;19998;-64
2024/04/13 13:21:14;;;;;;;8.15;5.72;;;;;;;;;;5489249;26;20070;-64
2024/04/13 13:23:41;;;;;;;6.47;5.85;;;;;;;;;;5489245;26;20309;-64
2024/04/13 13:26:07;;;;;;;9.07;5.65;;;;;;;;;;5488736;26;19998;-65
2024/04/13 13:28:33;;;;;;;7.65;5.72;;;;;;;;;;5474576;26;20083;-65
2024/04/13 13:30:59;;;;;;;8.27;5.78;;;;;;;;;;5475921;26;20405;-65
2024/04/13 13:33:25;;;;;;;7.00;6.28;;;;;;;;;;5488987;26;20030;-65
2024/04/13 13:35:51;;;;;;;10.40;5.70;;;;;;;;;;5485641;26;20005;-62
2024/04/13 13:38:17;;;;;;;8.27;5.55;;;;;;;;;;5478329;26;20068;-62
2024/04/13 13:40:43;;;;;;;9.65;5.80;;;;;;;;;;5481041;26;20451;-61
2024/04/13 13:43:11;;;;;;;8.38;6.28;;;;;;;;;;5467134;26;19999;-70
2024/04/13 13:45:37;;;;;;;9.88;6.25;;;;;;;;;;5488759;26;20069;-70
2024/04/13 13:48:03;;;;;;;7.88;6.20;;;;;;;;;;5479273;26;20069;-69
2024/04/13 13:50:29;;;;;;;7.10;6.07;;;;;;;;;;5488383;26;19998;-73
2024/04/13 13:52:55;;;;;;;9.93;6.28;;;;;;;;;;5488027;26;20081;-72
2024/04/13 13:55:21;;;;;;;6.20;5.70;;;;;;;;;;5483850;26;20010;-73
2024/04/13 13:57:47;;;;;;;6.88;5.68;;;;;;;;;;5488211;26;20002;-74
2024/04/13 14:00:13;;;;;;;8.43;5.40;;;;;;;;;;5486931;26;20012;-73
2024/04/13 14:02:39;;;;;;;6.78;5.75;;;;;;;;;;5461049;26;20125;-73
2024/04/13 14:05:05;;;;;;;8.20;6.28;;;;;;;;;;5488339;26;20432;-72
2024/04/13 14:07:32;;;;;;;7.22;6.03;;;;;;;;;;5488064;26;20026;-72
2024/04/13 14:09:57;;;;;;;6.75;5.80;;;;;;;;;;5487670;26;20081;-71